sensor_id;sensor_type;location;lat;lon;timestamp;pressure;altitude;pressure_sealevel;temperature;humidity
9307;BME280;4691;47.612;7.610;2022-09-09T00:02:21;98897.00;;;15.49;100.00
9307;BME280;4691;47.612;7.610;2022-09-09T00:05:04;98905.75;;;15.51;100.00
9307;BME280;4691;47.612;7.610;2022-09-09T00:10:24;98950.31;;;15.55;100.00
9307;BME280;4691;47.612;7.610;2022-09-09T00:15:41;98975.97;;;15.59;100.00
9307;BME280;4691;47.612;7.610;2022-09-09T00:18:22;99008.56;;;15.66;100.00
9307;BME280;4691;47.612;7.610;2022-09-09T00:23:31;99081.47;;;15.74;100.00
9307;BME280;4691;47.612;7.610;2022-09-09T00:29:43;98994.56;;;15.90;100.00
9307;BME280;4691;47.612;7.610;2022-09-09T00:32:16;98981.50;;;15.95;100.00
9307;BME280;4691;47.612;7.610;2022-09-09T00:35:02;98954.63;;;16.03;100.00
9307;BME280;4691;47.612;7.610;2022-09-09T00:37:29;98957.72;;;16.08;100.00
9307;BME280;4691;47.612;7.610;2022-09-09T00:39:59;98921.34;;;16.13;100.00
9307;BME280;4691;47.612;7.610;2022-09-09T00:42:40;98856.69;;;16.21;100.00
9307;BME280;4691;47.612;7.610;2022-09-09T00:48:01;98620.91;;;16.40;100.00
9307;BME280;4691;47.612;7.610;2022-09-09T00:50:59;98542.19;;;16.44;100.00
9307;BME280;4691;47.612;7.610;2022-09-09T00:53:35;98436.94;;;16.52;100.00
9307;BME280;4691;47.612;7.610;2022-09-09T00:56:14;98389.69;;;16.57;100.00
9307;BME280;4691;47.612;7.610;2022-09-09T00:58:57;98529.69;;;16.51;100.00
9307;BME280;4691;47.612;7.610;2022-09-09T01:01:28;98656.13;;;16.38;100.00
9307;BME280;4691;47.612;7.610;2022-09-09T01:03:54;98812.22;;;16.25;100.00
9307;BME280;4691;47.612;7.610;2022-09-09T01:06:34;98935.13;;;16.09;100.00
9307;BME280;4691;47.612;7.610;2022-09-09T01:09:12;99052.63;;;15.94;100.00
9307;BME280;4691;47.612;7.610;2022-09-09T01:16:59;99306.97;;;15.75;100.00
9307;BME280;4691;47.612;7.610;2022-09-09T01:19:55;99294.16;;;15.67;100.00
9307;BME280;4691;47.612;7.610;2022-09-09T01:28:10;99114.28;;;15.50;100.00
9307;BME280;4691;47.612;7.610;2022-09-09T01:30:39;99155.72;;;15.49;100.00
9307;BME280;4691;47.612;7.610;2022-09-09T01:37:02;98960.06;;;15.56;100.00
9307;BME280;4691;47.612;7.610;2022-09-09T01:39:24;98949.19;;;15.48;100.00
9307;BME280;4691;47.612;7.610;2022-09-09T01:41:49;98958.84;;;15.41;100.00
9307;BME280;4691;47.612;7.610;2022-09-09T01:44:15;98975.00;;;15.41;100.00
9307;BME280;4691;47.612;7.610;2022-09-09T01:46:40;98982.41;;;15.39;100.00
9307;BME280;4691;47.612;7.610;2022-09-09T01:49:07;98978.72;;;15.40;100.00
9307;BME280;4691;47.612;7.610;2022-09-09T01:51:34;98977.72;;;15.41;100.00
9307;BME280;4691;47.612;7.610;2022-09-09T01:54:01;98992.19;;;15.40;100.00
9307;BME280;4691;47.612;7.610;2022-09-09T01:59:36;98993.31;;;15.47;100.00
9307;BME280;4691;47.612;7.610;2022-09-09T02:04:54;99031.44;;;15.52;100.00
9307;BME280;4691;47.612;7.610;2022-09-09T02:07:41;99030.00;;;15.58;100.00
9307;BME280;4691;47.612;7.610;2022-09-09T02:10:16;99028.44;;;15.55;100.00
9307;BME280;4691;47.612;7.610;2022-09-09T02:12:47;99028.44;;;15.55;100.00
9307;BME280;4691;47.612;7.610;2022-09-09T02:15:24;99020.38;;;15.55;100.00
9307;BME280;4691;47.612;7.610;2022-09-09T02:19:38;98819.94;;;15.56;100.00
9307;BME280;4691;47.612;7.610;2022-09-09T02:22:04;98819.78;;;15.58;100.00
9307;BME280;4691;47.612;7.610;2022-09-09T02:24:32;98792.38;;;15.62;100.00
9307;BME280;4691;47.612;7.610;2022-09-09T02:27:01;98803.88;;;15.64;100.00
9307;BME280;4691;47.612;7.610;2022-09-09T02:29:36;98812.94;;;15.63;100.00
9307;BME280;4691;47.612;7.610;2022-09-09T02:32:06;98812.94;;;15.63;100.00
9307;BME280;4691;47.612;7.610;2022-09-09T02:34:36;98807.22;;;15.66;100.00
9307;BME280;4691;47.612;7.610;2022-09-09T02:37:06;98811.06;;;15.64;100.00
9307;BME280;4691;47.612;7.610;2022-09-09T02:39:33;98812.22;;;15.61;100.00
9307;BME280;4691;47.612;7.610;2022-09-09T02:41:59;98825.56;;;15.63;100.00
9307;BME280;4691;47.612;7.610;2022-09-09T02:44:24;98831.34;;;15.68;100.00
9307;BME280;4691;47.612;7.610;2022-09-09T02:50:12;98849.56;;;15.56;100.00
9307;BME280;4691;47.612;7.610;2022-09-09T02:52:15;98858.97;;;15.52;100.00
9307;BME280;4691;47.612;7.610;2022-09-09T02:54:44;98871.44;;;15.53;100.00
9307;BME280;4691;47.612;7.610;2022-09-09T02:57:23;98875.84;;;15.54;100.00
9307;BME280;4691;47.612;7.610;2022-09-09T02:59:50;98880.09;;;15.57;100.00
9307;BME280;4691;47.612;7.610;2022-09-09T03:02:17;98880.63;;;15.60;100.00
9307;BME280;4691;47.612;7.610;2022-09-09T03:04:44;98888.25;;;15.65;100.00
9307;BME280;4691;47.612;7.610;2022-09-09T03:07:12;98888.84;;;15.59;100.00
9307;BME280;4691;47.612;7.610;2022-09-09T03:09:37;98898.06;;;15.56;100.00
9307;BME280;4691;47.612;7.610;2022-09-09T03:12:03;98897.81;;;15.59;100.00
9307;BME280;4691;47.612;7.610;2022-09-09T03:14:32;98900.03;;;15.64;100.00
9307;BME280;4691;47.612;7.610;2022-09-09T03:16:57;98901.88;;;15.63;100.00
9307;BME280;4691;47.612;7.610;2022-09-09T03:19:26;98884.72;;;15.64;100.00
9307;BME280;4691;47.612;7.610;2022-09-09T03:21:52;98890.66;;;15.68;100.00
9307;BME280;4691;47.612;7.610;2022-09-09T03:24:18;98894.94;;;15.71;100.00
9307;BME280;4691;47.612;7.610;2022-09-09T03:26:46;98892.22;;;15.71;100.00
9307;BME280;4691;47.612;7.610;2022-09-09T03:29:12;98891.78;;;15.75;100.00
9307;BME280;4691;47.612;7.610;2022-09-09T03:31:38;98891.63;;;15.77;100.00
9307;BME280;4691;47.612;7.610;2022-09-09T03:34:03;98887.84;;;15.70;100.00
9307;BME280;4691;47.612;7.610;2022-09-09T03:36:29;98897.75;;;15.69;100.00
9307;BME280;4691;47.612;7.610;2022-09-09T03:38:55;98900.91;;;15.64;100.00
9307;BME280;4691;47.612;7.610;2022-09-09T03:41:21;98907.28;;;15.63;100.00
9307;BME280;4691;47.612;7.610;2022-09-09T03:43:51;98900.72;;;15.66;100.00
9307;BME280;4691;47.612;7.610;2022-09-09T03:46:21;98900.59;;;15.67;100.00
9307;BME280;4691;47.612;7.610;2022-09-09T03:48:47;98906.00;;;15.67;100.00
9307;BME280;4691;47.612;7.610;2022-09-09T03:51:12;98912.13;;;15.70;100.00
9307;BME280;4691;47.612;7.610;2022-09-09T03:53:38;98904.03;;;15.70;100.00
9307;BME280;4691;47.612;7.610;2022-09-09T03:56:08;98911.81;;;15.73;100.00
9307;BME280;4691;47.612;7.610;2022-09-09T03:58:35;98903.72;;;15.73;100.00
9307;BME280;4691;47.612;7.610;2022-09-09T04:01:06;98906.56;;;15.71;100.00
9307;BME280;4691;47.612;7.610;2022-09-09T04:03:33;98902.28;;;15.68;100.00
9307;BME280;4691;47.612;7.610;2022-09-09T04:06:00;98897.91;;;15.67;100.00
9307;BME280;4691;47.612;7.610;2022-09-09T04:08:27;98896.03;;;15.68;100.00
9307;BME280;4691;47.612;7.610;2022-09-09T04:10:53;98892.13;;;15.62;100.00
9307;BME280;4691;47.612;7.610;2022-09-09T04:13:24;98897.50;;;15.62;100.00
9307;BME280;4691;47.612;7.610;2022-09-09T04:15:54;98894.63;;;15.64;100.00
9307;BME280;4691;47.612;7.610;2022-09-09T04:18:21;98897.19;;;15.65;100.00
9307;BME280;4691;47.612;7.610;2022-09-09T04:20:48;98896.88;;;15.68;100.00
9307;BME280;4691;47.612;7.610;2022-09-09T04:23:13;98904.28;;;15.66;100.00
9307;BME280;4691;47.612;7.610;2022-09-09T04:25:44;98911.38;;;15.67;100.00
9307;BME280;4691;47.612;7.610;2022-09-09T04:28:09;98913.22;;;15.67;100.00
9307;BME280;4691;47.612;7.610;2022-09-09T04:30:35;98916.78;;;15.67;100.00
9307;BME280;4691;47.612;7.610;2022-09-09T04:33:00;98909.41;;;15.70;100.00
9307;BME280;4691;47.612;7.610;2022-09-09T04:35:26;98900.59;;;15.67;100.00
9307;BME280;4691;47.612;7.610;2022-09-09T04:37:52;98896.88;;;15.68;100.00
9307;BME280;4691;47.612;7.610;2022-09-09T04:40:17;98906.00;;;15.67;100.00
9307;BME280;4691;47.612;7.610;2022-09-09T04:42:43;98914.50;;;15.63;100.00
9307;BME280;4691;47.612;7.610;2022-09-09T04:45:09;98912.84;;;15.62;100.00
9307;BME280;4691;47.612;7.610;2022-09-09T04:47:36;98912.66;;;15.63;100.00
9307;BME280;4691;47.612;7.610;2022-09-09T04:50:01;98920.59;;;15.65;100.00
9307;BME280;4691;47.612;7.610;2022-09-09T04:52:27;98925.28;;;15.63;100.00
9307;BME280;4691;47.612;7.610;2022-09-09T04:54:52;98924.28;;;15.64;100.00
9307;BME280;4691;47.612;7.610;2022-09-09T04:57:19;98923.44;;;15.63;100.00
9307;BME280;4691;47.612;7.610;2022-09-09T04:59:45;98924.00;;;15.67;100.00
9307;BME280;4691;47.612;7.610;2022-09-09T05:02:10;98935.63;;;15.67;100.00
9307;BME280;4691;47.612;7.610;2022-09-09T05:04:36;98922.47;;;15.64;100.00
9307;BME280;4691;47.612;7.610;2022-09-09T05:07:01;98927.84;;;15.64;100.00
9307;BME280;4691;47.612;7.610;2022-09-09T05:09:26;98916.81;;;15.58;100.00
9307;BME280;4691;47.612;7.610;2022-09-09T05:11:52;98920.13;;;15.52;100.00
9307;BME280;4691;47.612;7.610;2022-09-09T05:14:17;98926.66;;;15.49;100.00
9307;BME280;4691;47.612;7.610;2022-09-09T05:16:44;98925.63;;;15.50;100.00
9307;BME280;4691;47.612;7.610;2022-09-09T05:19:10;98934.13;;;15.55;100.00
9307;BME280;4691;47.612;7.610;2022-09-09T05:21:36;98932.84;;;15.59;100.00
9307;BME280;4691;47.612;7.610;2022-09-09T05:24:02;98939.31;;;15.66;100.00
9307;BME280;4691;47.612;7.610;2022-09-09T05:26:27;98936.06;;;15.73;100.00
9307;BME280;4691;47.612;7.610;2022-09-09T05:28:54;98933.06;;;15.76;100.00
9307;BME280;4691;47.612;7.610;2022-09-09T05:31:21;98937.16;;;15.80;100.00
9307;BME280;4691;47.612;7.610;2022-09-09T05:33:47;98935.16;;;15.82;100.00
9307;BME280;4691;47.612;7.610;2022-09-09T05:36:18;98939.25;;;15.86;100.00
9307;BME280;4691;47.612;7.610;2022-09-09T05:38:44;98945.34;;;15.88;100.00
9307;BME280;4691;47.612;7.610;2022-09-09T05:41:11;98950.03;;;15.86;100.00
9307;BME280;4691;47.612;7.610;2022-09-09T05:43:38;98942.94;;;15.85;100.00
9307;BME280;4691;47.612;7.610;2022-09-09T05:46:17;98947.97;;;15.98;100.00
9307;BME280;4691;47.612;7.610;2022-09-09T05:48:45;98942.69;;;16.06;100.00
9307;BME280;4691;47.612;7.610;2022-09-09T05:51:15;98947.69;;;16.01;100.00
9307;BME280;4691;47.612;7.610;2022-09-09T05:53:41;98943.91;;;15.94;100.00
9307;BME280;4691;47.612;7.610;2022-09-09T05:56:14;98948.72;;;15.90;100.00
9307;BME280;4691;47.612;7.610;2022-09-09T05:58:40;98952.44;;;15.89;100.00
9307;BME280;4691;47.612;7.610;2022-09-09T06:01:13;98953.13;;;15.91;100.00
9307;BME280;4691;47.612;7.610;2022-09-09T06:03:41;98951.28;;;15.92;100.00
9307;BME280;4691;47.612;7.610;2022-09-09T06:06:09;98953.38;;;15.98;100.00
9307;BME280;4691;47.612;7.610;2022-09-09T06:08:40;98950.22;;;16.02;100.00
9307;BME280;4691;47.612;7.610;2022-09-09T06:11:08;98956.94;;;15.98;100.00
9307;BME280;4691;47.612;7.610;2022-09-09T06:13:34;98948.44;;;15.93;100.00
9307;BME280;4691;47.612;7.610;2022-09-09T06:16:00;98957.22;;;15.95;100.00
9307;BME280;4691;47.612;7.610;2022-09-09T06:18:26;98956.63;;;16.01;100.00
9307;BME280;4691;47.612;7.610;2022-09-09T06:20:59;98952.03;;;16.11;100.00
9307;BME280;4691;47.612;7.610;2022-09-09T06:23:26;98953.19;;;16.09;100.00
9307;BME280;4691;47.612;7.610;2022-09-09T06:26:15;98944.03;;;16.20;100.00
9307;BME280;4691;47.612;7.610;2022-09-09T06:28:43;98934.00;;;16.30;100.00
9307;BME280;4691;47.612;7.610;2022-09-09T06:31:13;98940.19;;;16.40;100.00
9307;BME280;4691;47.612;7.610;2022-09-09T06:33:41;98939.94;;;16.33;100.00
9307;BME280;4691;47.612;7.610;2022-09-09T06:36:30;98943.56;;;16.42;100.00
9307;BME280;4691;47.612;7.610;2022-09-09T06:38:56;98931.06;;;16.41;100.00
9307;BME280;4691;47.612;7.610;2022-09-09T06:41:23;98932.16;;;16.48;100.00
9307;BME280;4691;47.612;7.610;2022-09-09T06:43:49;98917.03;;;16.55;100.00
9307;BME280;4691;47.612;7.610;2022-09-09T06:46:18;98923.66;;;16.61;100.00
9307;BME280;4691;47.612;7.610;2022-09-09T06:48:45;98906.25;;;16.55;100.00
9307;BME280;4691;47.612;7.610;2022-09-09T06:51:16;98896.84;;;16.60;100.00
9307;BME280;4691;47.612;7.610;2022-09-09T06:53:43;98898.06;;;16.65;100.00
9307;BME280;4691;47.612;7.610;2022-09-09T06:58:34;98894.19;;;16.68;100.00
9307;BME280;4691;47.612;7.610;2022-09-09T07:01:03;98888.38;;;16.54;100.00
9307;BME280;4691;47.612;7.610;2022-09-09T07:03:28;98880.09;;;16.56;100.00
9307;BME280;4691;47.612;7.610;2022-09-09T07:05:59;98875.25;;;16.60;100.00
9307;BME280;4691;47.612;7.610;2022-09-09T07:08:24;98883.72;;;16.65;100.00
9307;BME280;4691;47.612;7.610;2022-09-09T07:10:51;98877.00;;;16.69;100.00
9307;BME280;4691;47.612;7.610;2022-09-09T07:13:27;98872.38;;;16.79;100.00
9307;BME280;4691;47.612;7.610;2022-09-09T07:15:53;98865.19;;;16.88;100.00
9307;BME280;4691;47.612;7.610;2022-09-09T07:18:19;98874.50;;;16.93;100.00
9307;BME280;4691;47.612;7.610;2022-09-09T07:20:54;98870.09;;;16.92;100.00
9307;BME280;4691;47.612;7.610;2022-09-09T07:23:21;98867.47;;;17.01;100.00
9307;BME280;4691;47.612;7.610;2022-09-09T07:25:47;98865.53;;;17.19;100.00
9307;BME280;4691;47.612;7.610;2022-09-09T07:28:13;98847.66;;;17.26;100.00
9307;BME280;4691;47.612;7.610;2022-09-09T07:30:38;98830.88;;;17.49;100.00
9307;BME280;4691;47.612;7.610;2022-09-09T07:33:04;98837.97;;;17.50;100.00
9307;BME280;4691;47.612;7.610;2022-09-09T07:35:29;98832.25;;;17.61;100.00
9307;BME280;4691;47.612;7.610;2022-09-09T07:37:54;98818.41;;;17.64;100.00
9307;BME280;4691;47.612;7.610;2022-09-09T07:40:20;98820.06;;;17.57;100.00
9307;BME280;4691;47.612;7.610;2022-09-09T07:42:47;98813.34;;;17.69;100.00
9307;BME280;4691;47.612;7.610;2022-09-09T07:45:12;98823.53;;;17.75;100.00
9307;BME280;4691;47.612;7.610;2022-09-09T07:47:37;98805.56;;;17.66;100.00
9307;BME280;4691;47.612;7.610;2022-09-09T07:50:03;98800.13;;;17.50;100.00
9307;BME280;4691;47.612;7.610;2022-09-09T07:52:28;98802.28;;;17.38;100.00
9307;BME280;4691;47.612;7.610;2022-09-09T07:54:55;98826.28;;;17.41;100.00
9307;BME280;4691;47.612;7.610;2022-09-09T07:57:23;98847.25;;;17.47;100.00
9307;BME280;4691;47.612;7.610;2022-09-09T07:59:48;98858.25;;;17.54;100.00
9307;BME280;4691;47.612;7.610;2022-09-09T08:02:13;98846.47;;;17.63;100.00
9307;BME280;4691;47.612;7.610;2022-09-09T08:04:39;98828.41;;;17.72;100.00
9307;BME280;4691;47.612;7.610;2022-09-09T08:07:04;98785.13;;;17.63;100.00
9307;BME280;4691;47.612;7.610;2022-09-09T08:09:29;98715.00;;;17.70;100.00
9307;BME280;4691;47.612;7.610;2022-09-09T08:11:57;98677.47;;;17.67;100.00
9307;BME280;4691;47.612;7.610;2022-09-09T08:14:23;98604.97;;;17.54;100.00
9307;BME280;4691;47.612;7.610;2022-09-09T08:16:52;98605.66;;;17.48;100.00
9307;BME280;4691;47.612;7.610;2022-09-09T08:19:21;98632.69;;;17.48;100.00
9307;BME280;4691;47.612;7.610;2022-09-09T08:21:46;98557.16;;;17.47;100.00
9307;BME280;4691;47.612;7.610;2022-09-09T08:24:13;98411.91;;;17.40;100.00
9307;BME280;4691;47.612;7.610;2022-09-09T08:26:43;98409.94;;;17.34;100.00
9307;BME280;4691;47.612;7.610;2022-09-09T08:29:10;98364.47;;;17.38;100.00
9307;BME280;4691;47.612;7.610;2022-09-09T08:31:38;98316.47;;;17.48;100.00
9307;BME280;4691;47.612;7.610;2022-09-09T08:34:04;98071.84;;;17.67;100.00
9307;BME280;4691;47.612;7.610;2022-09-09T08:36:33;98023.13;;;17.75;100.00
9307;BME280;4691;47.612;7.610;2022-09-09T08:38:59;97975.78;;;17.79;100.00
9307;BME280;4691;47.612;7.610;2022-09-09T08:41:52;97794.56;;;18.09;100.00
9307;BME280;4691;47.612;7.610;2022-09-09T08:47:38;97601.03;;;18.35;100.00
9307;BME280;4691;47.612;7.610;2022-09-09T08:50:29;97459.44;;;18.27;100.00
9307;BME280;4691;47.612;7.610;2022-09-09T08:53:02;97342.09;;;18.42;100.00
9307;BME280;4691;47.612;7.610;2022-09-09T08:55:41;97202.19;;;18.62;100.00
9307;BME280;4691;47.612;7.610;2022-09-09T08:58:16;97175.97;;;18.83;100.00
9307;BME280;4691;47.612;7.610;2022-09-09T09:08:40;97308.00;;;19.14;100.00
9307;BME280;4691;47.612;7.610;2022-09-09T09:11:08;97242.53;;;19.24;100.00
9307;BME280;4691;47.612;7.610;2022-09-09T09:13:42;97214.16;;;19.26;100.00
9307;BME280;4691;47.612;7.610;2022-09-09T09:18:43;97112.00;;;19.40;100.00
9307;BME280;4691;47.612;7.610;2022-09-09T09:21:16;97127.78;;;19.50;100.00
9307;BME280;4691;47.612;7.610;2022-09-09T09:23:57;97181.25;;;19.74;100.00
9307;BME280;4691;47.612;7.610;2022-09-09T09:26:31;97200.63;;;19.78;100.00
9307;BME280;4691;47.612;7.610;2022-09-09T09:29:18;97229.41;;;19.79;100.00
9307;BME280;4691;47.612;7.610;2022-09-09T09:31:56;97240.09;;;20.06;100.00
9307;BME280;4691;47.612;7.610;2022-09-09T09:34:24;97284.06;;;20.53;100.00
9307;BME280;4691;47.612;7.610;2022-09-09T09:36:57;97387.69;;;20.81;100.00
9307;BME280;4691;47.612;7.610;2022-09-09T09:39:27;97403.28;;;20.93;100.00
9307;BME280;4691;47.612;7.610;2022-09-09T09:41:56;97397.13;;;21.04;100.00
9307;BME280;4691;47.612;7.610;2022-09-09T09:46:48;97508.47;;;21.17;100.00
9307;BME280;4691;47.612;7.610;2022-09-09T09:49:21;97628.31;;;21.02;100.00
9307;BME280;4691;47.612;7.610;2022-09-09T09:52:13;97669.16;;;21.41;100.00
9307;BME280;4691;47.612;7.610;2022-09-09T09:54:46;97724.53;;;21.53;100.00
9307;BME280;4691;47.612;7.610;2022-09-09T09:57:15;97757.19;;;21.53;100.00
9307;BME280;4691;47.612;7.610;2022-09-09T09:59:42;97837.03;;;21.65;100.00
9307;BME280;4691;47.612;7.610;2022-09-09T10:02:23;97859.25;;;21.56;100.00
9307;BME280;4691;47.612;7.610;2022-09-09T10:05:19;97824.69;;;22.14;100.00
9307;BME280;4691;47.612;7.610;2022-09-09T10:07:46;97843.34;;;22.49;100.00
9307;BME280;4691;47.612;7.610;2022-09-09T10:10:26;98023.25;;;22.74;100.00
9307;BME280;4691;47.612;7.610;2022-09-09T10:13:22;98031.59;;;23.50;100.00
9307;BME280;4691;47.612;7.610;2022-09-09T10:19:34;98097.75;;;22.35;100.00
9307;BME280;4691;47.612;7.610;2022-09-09T10:22:11;98127.88;;;22.67;100.00
9307;BME280;4691;47.612;7.610;2022-09-09T10:27:37;98281.88;;;23.81;100.00
9307;BME280;4691;47.612;7.610;2022-09-09T10:30:14;98338.53;;;23.92;100.00
9307;BME280;4691;47.612;7.610;2022-09-09T10:36:22;98359.25;;;22.88;100.00
9307;BME280;4691;47.612;7.610;2022-09-09T10:42:12;98417.59;;;23.40;100.00
9307;BME280;4691;47.612;7.610;2022-09-09T10:55:45;98379.41;;;22.87;100.00
9307;BME280;4691;47.612;7.610;2022-09-09T11:01:37;98195.41;;;22.25;100.00
9307;BME280;4691;47.612;7.610;2022-09-09T11:04:27;98121.28;;;22.88;100.00
9307;BME280;4691;47.612;7.610;2022-09-09T11:07:39;98217.13;;;23.95;100.00
9307;BME280;4691;47.612;7.610;2022-09-09T11:13:24;98391.97;;;24.58;100.00
9307;BME280;4691;47.612;7.610;2022-09-09T11:15:56;98383.66;;;24.40;100.00
9307;BME280;4691;47.612;7.610;2022-09-09T11:26:05;98407.53;;;24.58;100.00
9307;BME280;4691;47.612;7.610;2022-09-09T11:29:05;98419.84;;;24.73;100.00
9307;BME280;4691;47.612;7.610;2022-09-09T11:40:25;98425.03;;;23.98;100.00
9307;BME280;4691;47.612;7.610;2022-09-09T11:43:27;98353.09;;;23.53;100.00
9307;BME280;4691;47.612;7.610;2022-09-09T11:45:56;98403.94;;;25.20;100.00
9307;BME280;4691;47.612;7.610;2022-09-09T11:51:01;98498.69;;;25.90;100.00
9307;BME280;4691;47.612;7.610;2022-09-09T11:53:30;98531.25;;;26.90;100.00
9307;BME280;4691;47.612;7.610;2022-09-09T11:56:02;98541.38;;;26.60;100.00
9307;BME280;4691;47.612;7.610;2022-09-09T11:58:41;98532.09;;;25.74;100.00
9307;BME280;4691;47.612;7.610;2022-09-09T12:01:27;98527.81;;;25.59;100.00
9307;BME280;4691;47.612;7.610;2022-09-09T12:06:32;98518.50;;;26.29;100.00
9307;BME280;4691;47.612;7.610;2022-09-09T12:09:07;98544.25;;;26.46;100.00
9307;BME280;4691;47.612;7.610;2022-09-09T12:11:33;98544.78;;;27.04;100.00
9307;BME280;4691;47.612;7.610;2022-09-09T12:17:44;98558.47;;;27.22;100.00
9307;BME280;4691;47.612;7.610;2022-09-09T12:23:27;98578.28;;;26.39;100.00
9307;BME280;4691;47.612;7.610;2022-09-09T12:29:29;98569.00;;;25.01;100.00
9307;BME280;4691;47.612;7.610;2022-09-09T12:34:53;98535.22;;;24.30;100.00
9307;BME280;4691;47.612;7.610;2022-09-09T12:39:58;98552.03;;;25.56;100.00
9307;BME280;4691;47.612;7.610;2022-09-09T12:42:27;98568.69;;;25.23;100.00
9307;BME280;4691;47.612;7.610;2022-09-09T12:45:03;98570.22;;;24.67;100.00
9307;BME280;4691;47.612;7.610;2022-09-09T12:52:50;98487.72;;;22.58;100.00
9307;BME280;4691;47.612;7.610;2022-09-09T12:59:26;98490.50;;;22.85;100.00
9307;BME280;4691;47.612;7.610;2022-09-09T13:01:59;98491.28;;;22.66;100.00
9307;BME280;4691;47.612;7.610;2022-09-09T13:07:39;98480.69;;;22.23;100.00
9307;BME280;4691;47.612;7.610;2022-09-09T13:10:10;98475.22;;;22.23;100.00
9307;BME280;4691;47.612;7.610;2022-09-09T13:12:39;98463.97;;;22.39;100.00
9307;BME280;4691;47.612;7.610;2022-09-09T13:15:14;98453.13;;;22.52;100.00
9307;BME280;4691;47.612;7.610;2022-09-09T13:17:51;98468.88;;;22.70;100.00
9307;BME280;4691;47.612;7.610;2022-09-09T13:20:26;98470.34;;;22.73;100.00
9307;BME280;4691;47.612;7.610;2022-09-09T13:23:09;98480.44;;;22.86;100.00
9307;BME280;4691;47.612;7.610;2022-09-09T13:26:20;98505.84;;;25.41;100.00
9307;BME280;4691;47.612;7.610;2022-09-09T13:28:47;98517.16;;;26.57;100.00
9307;BME280;4691;47.612;7.610;2022-09-09T13:31:28;98521.56;;;26.39;100.00
9307;BME280;4691;47.612;7.610;2022-09-09T13:37:26;98525.97;;;26.77;100.00
9307;BME280;4691;47.612;7.610;2022-09-09T13:40:02;98521.84;;;26.68;100.00
9307;BME280;4691;47.612;7.610;2022-09-09T13:46:03;98519.25;;;26.73;100.00
9307;BME280;4691;47.612;7.610;2022-09-09T13:48:37;98514.88;;;27.44;100.00
9307;BME280;4691;47.612;7.610;2022-09-09T13:55:14;98521.75;;;27.05;100.00
9307;BME280;4691;47.612;7.610;2022-09-09T13:58:16;98510.63;;;26.88;100.00
9307;BME280;4691;47.612;7.610;2022-09-09T14:05:33;98510.19;;;27.45;100.00
9307;BME280;4691;47.612;7.610;2022-09-09T14:07:44;98502.22;;;27.78;100.00
9307;BME280;4691;47.612;7.610;2022-09-09T14:10:53;98492.22;;;27.72;100.00
9307;BME280;4691;47.612;7.610;2022-09-09T14:13:24;98493.72;;;27.45;100.00
9307;BME280;4691;47.612;7.610;2022-09-09T14:15:54;98488.34;;;27.62;100.00
9307;BME280;4691;47.612;7.610;2022-09-09T14:18:20;98482.34;;;28.35;100.00
9307;BME280;4691;47.612;7.610;2022-09-09T14:20:53;98469.13;;;28.20;100.00
9307;BME280;4691;47.612;7.610;2022-09-09T14:27:46;98483.19;;;26.21;100.00
9307;BME280;4691;47.612;7.610;2022-09-09T14:30:18;98521.72;;;25.57;100.00
9307;BME280;4691;47.612;7.610;2022-09-09T14:32:45;98495.88;;;27.12;100.00
9307;BME280;4691;47.612;7.610;2022-09-09T14:35:11;98478.81;;;26.99;100.00
9307;BME280;4691;47.612;7.610;2022-09-09T14:37:40;98501.16;;;27.14;100.00
9307;BME280;4691;47.612;7.610;2022-09-09T14:40:44;98480.63;;;27.94;100.00
9307;BME280;4691;47.612;7.610;2022-09-09T14:43:13;98497.88;;;26.93;100.00
9307;BME280;4691;47.612;7.610;2022-09-09T14:45:39;98498.00;;;26.99;100.00
9307;BME280;4691;47.612;7.610;2022-09-09T14:54:43;98494.81;;;27.44;100.00
9307;BME280;4691;47.612;7.610;2022-09-09T14:57:33;98473.81;;;27.73;100.00
9307;BME280;4691;47.612;7.610;2022-09-09T15:00:04;98470.81;;;27.51;100.00
9307;BME280;4691;47.612;7.610;2022-09-09T15:02:34;98474.28;;;27.58;100.00
9307;BME280;4691;47.612;7.610;2022-09-09T15:08:09;98491.13;;;27.97;100.00
9307;BME280;4691;47.612;7.610;2022-09-09T15:10:49;98464.38;;;28.85;100.00
9307;BME280;4691;47.612;7.610;2022-09-09T15:13:24;98452.69;;;29.23;100.00
9307;BME280;4691;47.612;7.610;2022-09-09T15:16:08;98447.38;;;29.17;100.00
9307;BME280;4691;47.612;7.610;2022-09-09T15:18:56;98439.44;;;29.20;100.00
9307;BME280;4691;47.612;7.610;2022-09-09T15:24:37;98490.03;;;27.09;100.00
9307;BME280;4691;47.612;7.610;2022-09-09T15:27:12;98502.13;;;25.79;100.00
9307;BME280;4691;47.612;7.610;2022-09-09T15:29:43;98525.66;;;24.66;100.00
9307;BME280;4691;47.612;7.610;2022-09-09T15:32:14;98535.44;;;24.29;100.00
9307;BME280;4691;47.612;7.610;2022-09-09T15:34:42;98533.63;;;23.76;100.00
9307;BME280;4691;47.612;7.610;2022-09-09T15:37:10;98546.44;;;23.56;100.00
9307;BME280;4691;47.612;7.610;2022-09-09T15:39:47;98550.28;;;22.93;100.00
9307;BME280;4691;47.612;7.610;2022-09-09T15:42:14;98544.13;;;22.65;100.00
9307;BME280;4691;47.612;7.610;2022-09-09T15:45:13;98503.75;;;22.33;100.00
9307;BME280;4691;47.612;7.610;2022-09-09T15:48:33;98474.44;;;22.01;100.00
9307;BME280;4691;47.612;7.610;2022-09-09T15:51:53;98444.88;;;21.91;100.00
9307;BME280;4691;47.612;7.610;2022-09-09T16:34:22;98180.81;;;20.96;100.00
9307;BME280;4691;47.612;7.610;2022-09-09T16:44:36;98136.91;;;20.58;100.00
9307;BME280;4691;47.612;7.610;2022-09-09T16:47:01;98126.63;;;20.53;100.00
9307;BME280;4691;47.612;7.610;2022-09-09T16:49:27;98130.00;;;20.55;100.00
9307;BME280;4691;47.612;7.610;2022-09-09T16:51:53;98118.47;;;20.53;100.00
9307;BME280;4691;47.612;7.610;2022-09-09T16:54:19;98113.72;;;20.62;100.00
9307;BME280;4691;47.612;7.610;2022-09-09T16:56:46;98108.59;;;20.80;100.00
9307;BME280;4691;47.612;7.610;2022-09-09T16:59:14;98127.31;;;20.62;100.00
9307;BME280;4691;47.612;7.610;2022-09-09T17:01:41;98136.28;;;20.62;100.00
9307;BME280;4691;47.612;7.610;2022-09-09T17:04:11;98151.34;;;20.65;100.00
9307;BME280;4691;47.612;7.610;2022-09-09T17:06:38;98154.03;;;20.58;100.00
9307;BME280;4691;47.612;7.610;2022-09-09T17:09:10;98145.56;;;20.47;100.00
9307;BME280;4691;47.612;7.610;2022-09-09T17:11:37;98147.16;;;20.34;100.00
9307;BME280;4691;47.612;7.610;2022-09-09T17:14:04;98127.56;;;20.39;100.00